sensor_id;sensor_type;location;lat;lon;timestamp;temperature;humidity
16867;DHT22;8550;52.596;13.320;2023-05-01T00:01:11;6.00;99.90
16867;DHT22;8550;52.596;13.320;2023-05-01T00:06:13;6.00;99.90
16867;DHT22;8550;52.596;13.320;2023-05-01T00:11:15;5.90;99.90
16867;DHT22;8550;52.596;13.320;2023-05-01T00:16:18;5.90;99.90
16867;DHT22;8550;52.596;13.320;2023-05-01T00:21:20;5.80;99.90
16867;DHT22;8550;52.596;13.320;2023-05-01T00:26:22;5.80;99.90
16867;DHT22;8550;52.596;13.320;2023-05-01T00:31:29;5.70;99.90
16867;DHT22;8550;52.596;13.320;2023-05-01T00:36:31;5.80;99.90
16867;DHT22;8550;52.596;13.320;2023-05-01T00:41:33;5.80;99.90
16867;DHT22;8550;52.596;13.320;2023-05-01T00:46:37;5.70;99.90
16867;DHT22;8550;52.596;13.320;2023-05-01T00:51:39;5.70;99.90
16867;DHT22;8550;52.596;13.320;2023-05-01T00:56:41;5.60;99.90
16867;DHT22;8550;52.596;13.320;2023-05-01T01:01:45;5.60;99.90
16867;DHT22;8550;52.596;13.320;2023-05-01T01:06:51;5.50;99.90
16867;DHT22;8550;52.596;13.320;2023-05-01T01:12:02;5.40;99.90
16867;DHT22;8550;52.596;13.320;2023-05-01T01:17:20;5.30;99.90
16867;DHT22;8550;52.596;13.320;2023-05-01T01:22:26;5.30;99.90
16867;DHT22;8550;52.596;13.320;2023-05-01T01:27:57;5.20;99.90
16867;DHT22;8550;52.596;13.320;2023-05-01T01:33:21;5.10;99.90
16867;DHT22;8550;52.596;13.320;2023-05-01T01:38:32;5.00;99.90
16867;DHT22;8550;52.596;13.320;2023-05-01T01:43:39;4.90;99.90
16867;DHT22;8550;52.596;13.320;2023-05-01T01:48:42;5.00;99.90
16867;DHT22;8550;52.596;13.320;2023-05-01T01:53:50;5.10;99.90
16867;DHT22;8550;52.596;13.320;2023-05-01T01:58:55;5.20;99.90
16867;DHT22;8550;52.596;13.320;2023-05-01T02:03:57;5.10;99.90
16867;DHT22;8550;52.596;13.320;2023-05-01T02:09:02;5.20;99.90
16867;DHT22;8550;52.596;13.320;2023-05-01T02:14:06;5.20;99.90
16867;DHT22;8550;52.596;13.320;2023-05-01T02:19:09;5.30;99.90
16867;DHT22;8550;52.596;13.320;2023-05-01T02:24:13;5.30;99.90
16867;DHT22;8550;52.596;13.320;2023-05-01T02:29:16;5.20;99.90
16867;DHT22;8550;52.596;13.320;2023-05-01T02:34:17;5.30;99.90
16867;DHT22;8550;52.596;13.320;2023-05-01T02:39:21;5.20;99.90
16867;DHT22;8550;52.596;13.320;2023-05-01T02:44:24;5.20;99.90
16867;DHT22;8550;52.596;13.320;2023-05-01T02:49:27;5.20;99.90
16867;DHT22;8550;52.596;13.320;2023-05-01T02:54:32;5.20;99.90
16867;DHT22;8550;52.596;13.320;2023-05-01T02:59:34;5.20;99.90
16867;DHT22;8550;52.596;13.320;2023-05-01T03:04:36;5.10;99.90
16867;DHT22;8550;52.596;13.320;2023-05-01T03:09:40;5.20;99.90
16867;DHT22;8550;52.596;13.320;2023-05-01T03:14:42;5.10;99.90
16867;DHT22;8550;52.596;13.320;2023-05-01T03:19:44;5.10;99.90
16867;DHT22;8550;52.596;13.320;2023-05-01T03:24:47;5.10;99.90
16867;DHT22;8550;52.596;13.320;2023-05-01T03:29:50;5.10;99.90
16867;DHT22;8550;52.596;13.320;2023-05-01T03:34:52;5.00;99.90
16867;DHT22;8550;52.596;13.320;2023-05-01T03:39:55;5.10;99.90
16867;DHT22;8550;52.596;13.320;2023-05-01T03:44:57;5.10;99.90
16867;DHT22;8550;52.596;13.320;2023-05-01T03:49:59;5.10;99.90
16867;DHT22;8550;52.596;13.320;2023-05-01T03:55:04;5.10;99.90
16867;DHT22;8550;52.596;13.320;2023-05-01T04:00:08;5.10;99.90
16867;DHT22;8550;52.596;13.320;2023-05-01T04:05:11;5.20;99.90
16867;DHT22;8550;52.596;13.320;2023-05-01T04:10:15;5.30;99.90
16867;DHT22;8550;52.596;13.320;2023-05-01T04:15:17;5.30;99.90
16867;DHT22;8550;52.596;13.320;2023-05-01T04:20:20;5.30;99.90
16867;DHT22;8550;52.596;13.320;2023-05-01T04:25:23;5.40;99.90
16867;DHT22;8550;52.596;13.320;2023-05-01T04:30:25;5.50;99.90
16867;DHT22;8550;52.596;13.320;2023-05-01T04:35:27;5.70;99.90
16867;DHT22;8550;52.596;13.320;2023-05-01T04:40:31;5.80;99.90
16867;DHT22;8550;52.596;13.320;2023-05-01T04:45:33;5.90;99.90
16867;DHT22;8550;52.596;13.320;2023-05-01T04:50:34;6.10;99.90
16867;DHT22;8550;52.596;13.320;2023-05-01T04:55:38;6.20;99.90
16867;DHT22;8550;52.596;13.320;2023-05-01T05:00:40;6.30;99.90
16867;DHT22;8550;52.596;13.320;2023-05-01T05:05:42;6.50;99.90
16867;DHT22;8550;52.596;13.320;2023-05-01T05:10:45;6.60;99.90
16867;DHT22;8550;52.596;13.320;2023-05-01T05:15:47;6.80;99.90
16867;DHT22;8550;52.596;13.320;2023-05-01T05:20:49;7.00;99.90
16867;DHT22;8550;52.596;13.320;2023-05-01T05:25:52;7.10;99.90
16867;DHT22;8550;52.596;13.320;2023-05-01T05:30:55;7.40;99.90
16867;DHT22;8550;52.596;13.320;2023-05-01T05:35:57;7.50;99.90
16867;DHT22;8550;52.596;13.320;2023-05-01T05:41:02;7.80;99.90
16867;DHT22;8550;52.596;13.320;2023-05-01T05:46:04;7.90;99.90
16867;DHT22;8550;52.596;13.320;2023-05-01T05:51:06;8.10;99.90
16867;DHT22;8550;52.596;13.320;2023-05-01T05:56:09;8.30;99.90
16867;DHT22;8550;52.596;13.320;2023-05-01T06:01:11;8.60;99.90
16867;DHT22;8550;52.596;13.320;2023-05-01T06:06:14;8.80;99.90
16867;DHT22;8550;52.596;13.320;2023-05-01T06:11:18;9.20;99.90
16867;DHT22;8550;52.596;13.320;2023-05-01T06:16:21;9.40;99.90
16867;DHT22;8550;52.596;13.320;2023-05-01T06:21:23;9.60;99.90
16867;DHT22;8550;52.596;13.320;2023-05-01T06:26:26;9.90;99.90
16867;DHT22;8550;52.596;13.320;2023-05-01T06:31:28;10.20;99.90
16867;DHT22;8550;52.596;13.320;2023-05-01T06:36:30;10.40;99.90
16867;DHT22;8550;52.596;13.320;2023-05-01T06:41:34;10.70;99.70
16867;DHT22;8550;52.596;13.320;2023-05-01T06:46:38;10.90;98.90
16867;DHT22;8550;52.596;13.320;2023-05-01T06:51:40;11.00;98.40
16867;DHT22;8550;52.596;13.320;2023-05-01T06:56:43;11.20;97.90
16867;DHT22;8550;52.596;13.320;2023-05-01T07:01:45;11.40;97.70
16867;DHT22;8550;52.596;13.320;2023-05-01T07:06:47;11.60;96.40
16867;DHT22;8550;52.596;13.320;2023-05-01T07:11:51;11.80;96.60
16867;DHT22;8550;52.596;13.320;2023-05-01T07:16:53;12.00;96.00
16867;DHT22;8550;52.596;13.320;2023-05-01T07:21:55;12.20;96.10
16867;DHT22;8550;52.596;13.320;2023-05-01T07:26:58;12.50;95.20
16867;DHT22;8550;52.596;13.320;2023-05-01T07:32:00;13.00;95.40
16867;DHT22;8550;52.596;13.320;2023-05-01T07:37:02;13.40;94.10
16867;DHT22;8550;52.596;13.320;2023-05-01T07:42:05;13.60;93.10
16867;DHT22;8550;52.596;13.320;2023-05-01T07:47:07;13.80;92.00
16867;DHT22;8550;52.596;13.320;2023-05-01T07:52:09;13.90;92.00
16867;DHT22;8550;52.596;13.320;2023-05-01T07:57:13;14.10;91.80
16867;DHT22;8550;52.596;13.320;2023-05-01T08:02:16;14.40;91.10
16867;DHT22;8550;52.596;13.320;2023-05-01T08:07:18;14.60;90.10
16867;DHT22;8550;52.596;13.320;2023-05-01T08:12:21;14.80;88.50
16867;DHT22;8550;52.596;13.320;2023-05-01T08:17:23;14.90;89.00
16867;DHT22;8550;52.596;13.320;2023-05-01T08:22:25;15.20;83.30
16867;DHT22;8550;52.596;13.320;2023-05-01T08:27:29;15.30;84.90
16867;DHT22;8550;52.596;13.320;2023-05-01T08:32:30;15.60;81.40
16867;DHT22;8550;52.596;13.320;2023-05-01T08:37:33;15.60;80.50
16867;DHT22;8550;52.596;13.320;2023-05-01T08:42:36;15.70;80.80
16867;DHT22;8550;52.596;13.320;2023-05-01T08:47:39;15.60;78.40
16867;DHT22;8550;52.596;13.320;2023-05-01T08:52:43;15.70;77.60
16867;DHT22;8550;52.596;13.320;2023-05-01T08:57:47;16.00;77.10
16867;DHT22;8550;52.596;13.320;2023-05-01T09:02:50;16.20;78.00
16867;DHT22;8550;52.596;13.320;2023-05-01T09:07:52;16.20;76.90
16867;DHT22;8550;52.596;13.320;2023-05-01T09:13:01;16.30;74.50
16867;DHT22;8550;52.596;13.320;2023-05-01T09:18:07;16.40;73.20
16867;DHT22;8550;52.596;13.320;2023-05-01T09:23:10;16.50;71.80
16867;DHT22;8550;52.596;13.320;2023-05-01T09:28:14;16.90;74.10
16867;DHT22;8550;52.596;13.320;2023-05-01T09:33:16;16.90;68.80
16867;DHT22;8550;52.596;13.320;2023-05-01T09:38:20;17.20;74.70
16867;DHT22;8550;52.596;13.320;2023-05-01T09:43:27;17.40;70.80
16867;DHT22;8550;52.596;13.320;2023-05-01T09:48:30;17.60;69.90
16867;DHT22;8550;52.596;13.320;2023-05-01T09:53:39;18.00;65.80
16867;DHT22;8550;52.596;13.320;2023-05-01T09:58:42;18.10;67.10
16867;DHT22;8550;52.596;13.320;2023-05-01T10:03:45;18.20;66.50
16867;DHT22;8550;52.596;13.320;2023-05-01T10:08:54;18.30;68.70
16867;DHT22;8550;52.596;13.320;2023-05-01T10:14:08;18.30;64.60
16867;DHT22;8550;52.596;13.320;2023-05-01T10:19:10;18.50;65.10
16867;DHT22;8550;52.596;13.320;2023-05-01T10:24:12;18.70;63.50
16867;DHT22;8550;52.596;13.320;2023-05-01T10:29:18;18.80;63.50
16867;DHT22;8550;52.596;13.320;2023-05-01T10:34:22;18.60;61.90
16867;DHT22;8550;52.596;13.320;2023-05-01T10:39:29;18.60;62.00
16867;DHT22;8550;52.596;13.320;2023-05-01T10:44:33;18.70;62.20
16867;DHT22;8550;52.596;13.320;2023-05-01T10:50:05;19.30;60.50
16867;DHT22;8550;52.596;13.320;2023-05-01T10:55:32;19.10;60.30
16867;DHT22;8550;52.596;13.320;2023-05-01T11:00:35;19.50;61.90
16867;DHT22;8550;52.596;13.320;2023-05-01T11:06:08;21.00;57.50
16867;DHT22;8550;52.596;13.320;2023-05-01T11:11:45;22.10;55.80
16867;DHT22;8550;52.596;13.320;2023-05-01T11:16:50;23.60;52.80
16867;DHT22;8550;52.596;13.320;2023-05-01T11:21:53;24.10;51.80
16867;DHT22;8550;52.596;13.320;2023-05-01T11:26:55;24.70;48.30
16867;DHT22;8550;52.596;13.320;2023-05-01T11:32:01;23.10;48.80
16867;DHT22;8550;52.596;13.320;2023-05-01T11:37:03;22.70;50.70
16867;DHT22;8550;52.596;13.320;2023-05-01T11:42:05;22.60;51.00
16867;DHT22;8550;52.596;13.320;2023-05-01T11:47:09;23.10;48.10
16867;DHT22;8550;52.596;13.320;2023-05-01T11:52:11;22.50;50.30
16867;DHT22;8550;52.596;13.320;2023-05-01T11:57:13;24.50;49.00
16867;DHT22;8550;52.596;13.320;2023-05-01T12:02:20;25.60;44.60
16867;DHT22;8550;52.596;13.320;2023-05-01T12:07:22;27.50;42.40
16867;DHT22;8550;52.596;13.320;2023-05-01T12:12:24;28.80;40.40
16867;DHT22;8550;52.596;13.320;2023-05-01T12:17:28;29.50;36.90
16867;DHT22;8550;52.596;13.320;2023-05-01T12:22:30;29.40;36.20
16867;DHT22;8550;52.596;13.320;2023-05-01T12:27:42;28.30;36.60
16867;DHT22;8550;52.596;13.320;2023-05-01T12:32:45;28.10;36.00
16867;DHT22;8550;52.596;13.320;2023-05-01T12:37:47;26.60;38.10
16867;DHT22;8550;52.596;13.320;2023-05-01T12:42:56;25.80;39.20
16867;DHT22;8550;52.596;13.320;2023-05-01T12:48:00;26.20;38.80
16867;DHT22;8550;52.596;13.320;2023-05-01T12:53:02;26.40;40.10
16867;DHT22;8550;52.596;13.320;2023-05-01T12:58:04;28.20;39.20
16867;DHT22;8550;52.596;13.320;2023-05-01T13:03:08;28.10;36.90
16867;DHT22;8550;52.596;13.320;2023-05-01T13:08:10;28.40;36.30
16867;DHT22;8550;52.596;13.320;2023-05-01T13:13:12;28.70;37.00
16867;DHT22;8550;52.596;13.320;2023-05-01T13:18:15;28.40;37.50
16867;DHT22;8550;52.596;13.320;2023-05-01T13:23:17;27.70;37.60
16867;DHT22;8550;52.596;13.320;2023-05-01T13:28:19;27.10;38.50
16867;DHT22;8550;52.596;13.320;2023-05-01T13:33:22;27.70;36.90
16867;DHT22;8550;52.596;13.320;2023-05-01T13:38:24;27.30;37.60
16867;DHT22;8550;52.596;13.320;2023-05-01T13:43:27;27.60;38.80
16867;DHT22;8550;52.596;13.320;2023-05-01T13:48:30;28.50;38.40
16867;DHT22;8550;52.596;13.320;2023-05-01T13:53:32;29.50;34.80
16867;DHT22;8550;52.596;13.320;2023-05-01T13:58:35;30.10;35.40
16867;DHT22;8550;52.596;13.320;2023-05-01T14:03:40;31.40;34.30
16867;DHT22;8550;52.596;13.320;2023-05-01T14:08:43;31.70;32.70
16867;DHT22;8550;52.596;13.320;2023-05-01T14:13:46;30.10;32.90
16867;DHT22;8550;52.596;13.320;2023-05-01T14:18:52;29.20;33.80
16867;DHT22;8550;52.596;13.320;2023-05-01T14:23:55;30.00;34.00
16867;DHT22;8550;52.596;13.320;2023-05-01T14:28:57;31.00;32.10
16867;DHT22;8550;52.596;13.320;2023-05-01T14:34:04;31.20;31.60
16867;DHT22;8550;52.596;13.320;2023-05-01T14:39:06;30.00;33.70
16867;DHT22;8550;52.596;13.320;2023-05-01T14:44:10;30.30;33.00
16867;DHT22;8550;52.596;13.320;2023-05-01T14:49:18;29.70;33.30
16867;DHT22;8550;52.596;13.320;2023-05-01T14:54:20;27.80;34.90
16867;DHT22;8550;52.596;13.320;2023-05-01T14:59:22;25.90;39.20
16867;DHT22;8550;52.596;13.320;2023-05-01T15:04:25;24.90;39.80
16867;DHT22;8550;52.596;13.320;2023-05-01T15:09:27;23.80;39.00
16867;DHT22;8550;52.596;13.320;2023-05-01T15:14:30;22.90;40.80
16867;DHT22;8550;52.596;13.320;2023-05-01T15:19:33;22.90;41.50
16867;DHT22;8550;52.596;13.320;2023-05-01T15:24:35;23.20;39.60
16867;DHT22;8550;52.596;13.320;2023-05-01T15:29:38;22.70;40.00
16867;DHT22;8550;52.596;13.320;2023-05-01T15:34:41;22.50;42.00
16867;DHT22;8550;52.596;13.320;2023-05-01T15:39:43;22.60;42.80
16867;DHT22;8550;52.596;13.320;2023-05-01T15:44:46;22.80;42.50
16867;DHT22;8550;52.596;13.320;2023-05-01T15:49:50;22.70;42.80
16867;DHT22;8550;52.596;13.320;2023-05-01T15:54:51;22.60;42.40
16867;DHT22;8550;52.596;13.320;2023-05-01T15:59:54;22.30;44.30
16867;DHT22;8550;52.596;13.320;2023-05-01T16:04:57;22.30;45.10
16867;DHT22;8550;52.596;13.320;2023-05-01T16:09:59;22.10;44.40
16867;DHT22;8550;52.596;13.320;2023-05-01T16:15:03;21.60;44.60
16867;DHT22;8550;52.596;13.320;2023-05-01T16:20:09;21.90;45.00
16867;DHT22;8550;52.596;13.320;2023-05-01T16:25:12;22.10;43.40
16867;DHT22;8550;52.596;13.320;2023-05-01T16:30:14;22.20;43.90
16867;DHT22;8550;52.596;13.320;2023-05-01T16:35:21;22.20;45.70
16867;DHT22;8550;52.596;13.320;2023-05-01T16:40:23;21.70;45.50
16867;DHT22;8550;52.596;13.320;2023-05-01T16:45:25;21.70;46.70
16867;DHT22;8550;52.596;13.320;2023-05-01T16:50:29;21.80;45.60
16867;DHT22;8550;52.596;13.320;2023-05-01T16:55:31;21.70;47.10
16867;DHT22;8550;52.596;13.320;2023-05-01T17:00:33;21.60;49.50
16867;DHT22;8550;52.596;13.320;2023-05-01T17:05:37;21.40;50.00
16867;DHT22;8550;52.596;13.320;2023-05-01T17:10:39;21.10;49.50
16867;DHT22;8550;52.596;13.320;2023-05-01T17:15:41;20.70;47.10
16867;DHT22;8550;52.596;13.320;2023-05-01T17:20:44;20.50;48.10
16867;DHT22;8550;52.596;13.320;2023-05-01T17:25:46;20.10;49.00
16867;DHT22;8550;52.596;13.320;2023-05-01T17:30:48;19.90;50.20
16867;DHT22;8550;52.596;13.320;2023-05-01T17:35:51;19.60;52.30
16867;DHT22;8550;52.596;13.320;2023-05-01T17:40:55;19.40;51.60
16867;DHT22;8550;52.596;13.320;2023-05-01T17:45:56;19.20;52.70
16867;DHT22;8550;52.596;13.320;2023-05-01T17:51:00;19.00;51.80
16867;DHT22;8550;52.596;13.320;2023-05-01T17:56:02;18.80;54.70
16867;DHT22;8550;52.596;13.320;2023-05-01T18:01:04;18.70;54.90
16867;DHT22;8550;52.596;13.320;2023-05-01T18:06:07;18.50;55.10
16867;DHT22;8550;52.596;13.320;2023-05-01T18:11:09;18.30;56.20
16867;DHT22;8550;52.596;13.320;2023-05-01T18:16:11;18.00;57.30
16867;DHT22;8550;52.596;13.320;2023-05-01T18:21:14;17.70;59.50
16867;DHT22;8550;52.596;13.320;2023-05-01T18:26:16;17.40;63.40
16867;DHT22;8550;52.596;13.320;2023-05-01T18:31:18;17.10;66.00
16867;DHT22;8550;52.596;13.320;2023-05-01T18:36:22;16.70;67.10
16867;DHT22;8550;52.596;13.320;2023-05-01T18:41:23;16.50;68.00
16867;DHT22;8550;52.596;13.320;2023-05-01T18:46:26;16.30;71.00
16867;DHT22;8550;52.596;13.320;2023-05-01T18:51:29;16.10;72.50
16867;DHT22;8550;52.596;13.320;2023-05-01T18:56:31;16.00;73.90
16867;DHT22;8550;52.596;13.320;2023-05-01T19:01:33;15.90;75.70
16867;DHT22;8550;52.596;13.320;2023-05-01T19:06:37;15.80;76.10
16867;DHT22;8550;52.596;13.320;2023-05-01T19:11:41;15.60;81.00
16867;DHT22;8550;52.596;13.320;2023-05-01T19:16:44;15.50;81.40
16867;DHT22;8550;52.596;13.320;2023-05-01T19:21:48;15.40;81.50
16867;DHT22;8550;52.596;13.320;2023-05-01T19:26:55;15.20;79.70
16867;DHT22;8550;52.596;13.320;2023-05-01T19:31:57;15.20;80.30
16867;DHT22;8550;52.596;13.320;2023-05-01T19:37:08;15.00;81.10
16867;DHT22;8550;52.596;13.320;2023-05-01T19:42:10;14.90;84.50
16867;DHT22;8550;52.596;13.320;2023-05-01T19:47:12;14.70;85.80
16867;DHT22;8550;52.596;13.320;2023-05-01T19:52:16;14.80;88.00
16867;DHT22;8550;52.596;13.320;2023-05-01T19:57:19;14.60;86.50
16867;DHT22;8550;52.596;13.320;2023-05-01T20:02:27;14.50;89.20
16867;DHT22;8550;52.596;13.320;2023-05-01T20:07:30;14.30;89.70
16867;DHT22;8550;52.596;13.320;2023-05-01T20:12:33;14.20;90.30
16867;DHT22;8550;52.596;13.320;2023-05-01T20:17:36;14.20;90.90
16867;DHT22;8550;52.596;13.320;2023-05-01T20:22:39;14.00;90.50
16867;DHT22;8550;52.596;13.320;2023-05-01T20:27:44;14.00;91.80
16867;DHT22;8550;52.596;13.320;2023-05-01T20:32:53;13.90;92.90
16867;DHT22;8550;52.596;13.320;2023-05-01T20:37:56;13.90;94.70
16867;DHT22;8550;52.596;13.320;2023-05-01T20:42:59;14.00;96.80
16867;DHT22;8550;52.596;13.320;2023-05-01T20:48:06;13.90;95.90
16867;DHT22;8550;52.596;13.320;2023-05-01T20:53:12;13.80;96.30
16867;DHT22;8550;52.596;13.320;2023-05-01T20:58:21;13.80;97.80
16867;DHT22;8550;52.596;13.320;2023-05-01T21:03:23;13.90;98.80
16867;DHT22;8550;52.596;13.320;2023-05-01T21:08:27;13.80;98.20
16867;DHT22;8550;52.596;13.320;2023-05-01T21:13:30;13.80;99.60
16867;DHT22;8550;52.596;13.320;2023-05-01T21:18:32;13.80;99.90
16867;DHT22;8550;52.596;13.320;2023-05-01T21:23:41;13.70;99.90
16867;DHT22;8550;52.596;13.320;2023-05-01T21:28:45;13.80;99.90
16867;DHT22;8550;52.596;13.320;2023-05-01T21:33:47;13.60;99.90
16867;DHT22;8550;52.596;13.320;2023-05-01T21:38:52;13.60;99.90
16867;DHT22;8550;52.596;13.320;2023-05-01T21:43:54;13.60;99.90
16867;DHT22;8550;52.596;13.320;2023-05-01T21:48:57;13.50;99.90
16867;DHT22;8550;52.596;13.320;2023-05-01T21:54:04;13.50;99.90
16867;DHT22;8550;52.596;13.320;2023-05-01T21:59:06;13.40;99.90
16867;DHT22;8550;52.596;13.320;2023-05-01T22:04:11;13.40;99.90
16867;DHT22;8550;52.596;13.320;2023-05-01T22:09:16;13.40;99.90
16867;DHT22;8550;52.596;13.320;2023-05-01T22:14:18;13.30;99.90
16867;DHT22;8550;52.596;13.320;2023-05-01T22:19:35;13.20;99.90
16867;DHT22;8550;52.596;13.320;2023-05-01T22:24:45;13.20;99.90
16867;DHT22;8550;52.596;13.320;2023-05-01T22:29:47;13.30;99.90
16867;DHT22;8550;52.596;13.320;2023-05-01T22:34:53;13.20;99.90
16867;DHT22;8550;52.596;13.320;2023-05-01T22:39:59;13.20;99.90
16867;DHT22;8550;52.596;13.320;2023-05-01T22:45:01;13.10;99.90
16867;DHT22;8550;52.596;13.320;2023-05-01T22:50:03;13.10;99.90
16867;DHT22;8550;52.596;13.320;2023-05-01T22:55:07;13.00;99.90
16867;DHT22;8550;52.596;13.320;2023-05-01T23:00:11;13.00;99.90
16867;DHT22;8550;52.596;13.320;2023-05-01T23:05:13;13.00;99.90
16867;DHT22;8550;52.596;13.320;2023-05-01T23:10:20;13.00;99.90
16867;DHT22;8550;52.596;13.320;2023-05-01T23:15:30;12.90;99.90
16867;DHT22;8550;52.596;13.320;2023-05-01T23:20:34;12.90;99.90
16867;DHT22;8550;52.596;13.320;2023-05-01T23:25:45;12.80;99.90
16867;DHT22;8550;52.596;13.320;2023-05-01T23:30:53;12.90;99.90
16867;DHT22;8550;52.596;13.320;2023-05-01T23:35:55;12.80;99.90
16867;DHT22;8550;52.596;13.320;2023-05-01T23:40:59;12.80;99.90
16867;DHT22;8550;52.596;13.320;2023-05-01T23:46:01;12.70;99.90
16867;DHT22;8550;52.596;13.320;2023-05-01T23:51:03;12.60;99.90
16867;DHT22;8550;52.596;13.320;2023-05-01T23:56:07;12.60;99.90
